Airfield :
LOGIN :

Register | Disclaimer

   EN    FR    IT 

 










Legend :    VFR   Marginal VFR   IFR   Intensive IFR   Very Intensive IFR
Visi :
Ceiling :
>= 8 km
>= 3000ft
5 to 8 km
1000 to 3000 ft
1500m to 5 km
500 to 1000 ft
800 to 1500m
200 to 500 ft
< 800m
< 200 ft
Symbols :   Thunderstorms  Fog  Heavy snow  Heavy precipitations  Wind > 20 kt
SIGMETs :     Misc.  Thunderstorms  Icing  Turbulence  Mountain Waves  Volcanic Ashes







- Airport Elevation : 284 ft


EGUW - RAF Wattisham

CURRENT METAR :
  • 250050Z 34004KT CAVOK 19/17 Q1017 RMK BLU

EXPIRED METARs :
  • 242350Z 05002KT CAVOK 18/16 Q1017 TEMPO 6000 SHRA BKN045CB RMK BLU TEMPO WHT
  • 242320Z 15002KT 9999 -RA FEW070 BKN100 20/17 Q1018 TEMPO 6000 SHRA BKN045CB RMK BLU TEMPO WHT
  • 242250Z 25003KT 9999 -SHRA FEW080 BKN110 19/17 Q1018 TEMPO 6000 SHRA BKN045CB RMK BLU TEMPO WHT

TAF TAF EGUW
Valid from the 24 at 21:00 until the 25 at 02:00 UTC


241940Z 2421/2502 21005KT CAVOK
PROB30
TEMPO 2421/2423 4000 TSRA BKN040CB
PROB40
TEMPO 2423/2502 VRB15G25KT 2500 +TSRA BKN045CB
No reported NOTAMs for that airfield.
1 SIGMET reported for the London FIR (EGTT) :
 
Embedded thunderstorms
EGTT SIGMET 01 VALID 250100/250500 EGRR
EGTT LONDON FIR EMBD TS FCST WI N5130 W00100 - N5135 E00100 - N5030 E00101 - N5000 W00015 - N5000 W00200 - N5130 W00100 TOP FL360 MOV NNE 20KT NC=



MET'MAP, your aeronautical weather chart ! - Copyright ORBIFLY December 2007 - Disclaimer

ORBIFLY MET'MAP TEAM :

Programming & Development : Alexandra Zaïnal
Concept & Development : Baudouin d'Aumeries
Co-Development & Prog : Marc-Olivier Méhu
Technical & hardware support : Manuel Goepfert

Contact : metmap@orbifly.com




SOURCES & CREDITS :

   NOAA